Time;durP1;ratioP1;P1;durP2;ratioP2;P2;SDS_P1;SDS_P2;PMS_P1;PMS_P2;Temp;Humidity;BMP_temperature;BMP_pressure;BME280_temperature;BME280_humidity;BME280_pressure;Samples;Min_cycle;Max_cycle;Signal;HPM_P1;HPM_P2
2022/12/13 07:06:38;;;;;;;31.35;22.55;;;;;;;-2.87;86.21;100897.75;5313580;27;20396;-75
2022/12/13 07:09:10;;;;;;;32.53;22.23;;;;;;;-2.80;86.81;100892.38;5300682;28;20480;-75
2022/12/13 07:11:41;;;;;;;31.92;22.58;;;;;;;-2.77;86.79;100893.88;5298178;28;20305;-76
2022/12/13 07:14:12;;;;;;;35.33;23.95;;;;;;;-2.76;86.51;100898.25;5302219;28;20028;-76
2022/12/13 07:16:43;;;;;;;32.95;21.23;;;;;;;-2.71;86.75;100896.63;5322271;28;20092;-77
2022/12/13 07:19:18;;;;;;;34.40;23.23;;;;;;;-2.76;86.55;100896.38;5301832;28;20052;-76
2022/12/13 07:21:49;;;;;;;31.20;22.23;;;;;;;-2.70;87.07;100892.84;5301380;28;20016;-76
2022/12/13 07:24:20;;;;;;;31.92;22.55;;;;;;;-2.67;87.15;100891.63;5294552;28;20042;-77
2022/12/13 07:26:52;;;;;;;36.33;23.52;;;;;;;-2.68;87.18;100892.66;5279417;28;20525;-76
2022/12/13 07:29:23;;;;;;;35.80;23.20;;;;;;;-2.62;87.16;100892.69;5280477;28;20127;-76
2022/12/13 07:31:55;;;;;;;35.72;24.77;;;;;;;-2.69;86.86;100899.13;5279663;28;20031;-75
2022/12/13 07:34:28;;;;;;;37.13;23.40;;;;;;;-2.65;87.50;100887.66;5280165;28;20031;-76
2022/12/13 07:36:59;;;;;;;32.92;24.45;;;;;;;-2.69;86.48;100899.94;5279389;28;20020;-76
2022/12/13 07:39:31;;;;;;;36.92;26.02;;;;;;;-2.58;87.47;100895.00;5279308;28;20036;-76
2022/12/13 07:42:05;;;;;;;36.38;22.65;;;;;;;-2.50;87.30;100897.56;5300272;28;20032;-76
2022/12/13 07:44:36;;;;;;;38.60;24.25;;;;;;;-2.55;86.56;100895.44;5290542;28;20021;-75
2022/12/13 07:47:07;;;;;;;33.45;22.92;;;;;;;-2.65;86.61;100895.81;5304590;28;20501;-75
2022/12/13 07:49:39;;;;;;;36.67;24.85;;;;;;;-2.64;86.96;100897.47;5321028;28;20152;-76
2022/12/13 07:52:11;;;;;;;33.03;21.77;;;;;;;-2.63;86.36;100899.16;5300095;28;20427;-75
2022/12/13 07:54:42;;;;;;;32.92;23.23;;;;;;;-2.71;86.62;100907.47;5299175;28;20062;-75
2022/12/13 07:57:13;;;;;;;29.63;21.38;;;;;;;-2.68;86.75;100917.09;5299725;28;20024;-75
2022/12/13 07:59:45;;;;;;;34.35;23.65;;;;;;;-2.74;86.84;100913.28;5296958;28;20043;-72
2022/12/13 08:02:16;;;;;;;37.15;24.15;;;;;;;-2.57;87.41;100912.97;5279553;28;20025;-75
2022/12/13 08:04:47;;;;;;;31.63;22.30;;;;;;;-2.51;87.36;100909.44;5294459;28;20087;-75
2022/12/13 08:07:19;;;;;;;35.00;23.55;;;;;;;-2.49;86.56;100912.78;5281902;28;20388;-75
2022/12/13 08:09:50;;;;;;;34.83;23.88;;;;;;;-2.48;86.83;100904.47;5292770;28;20479;-75
2022/12/13 08:12:21;;;;;;;34.45;23.90;;;;;;;-2.62;86.23;100908.97;5292131;28;20062;-76
2022/12/13 08:14:54;;;;;;;33.67;23.10;;;;;;;-2.56;86.33;100892.91;5300017;28;20028;-76
2022/12/13 08:17:25;;;;;;;34.55;23.42;;;;;;;-2.52;86.42;100905.06;5310357;28;20031;-74
2022/12/13 08:19:59;;;;;;;31.45;22.25;;;;;;;-2.45;86.24;100908.66;5289852;28;20029;-75
2022/12/13 08:22:30;;;;;;;34.85;24.70;;;;;;;-2.15;88.61;100908.31;5262911;28;20039;-70
2022/12/13 08:25:02;;;;;;;34.78;23.48;;;;;;;-2.14;89.34;100907.28;5263294;28;20036;-70
2022/12/13 08:27:34;;;;;;;34.70;24.33;;;;;;;-1.81;90.87;100912.81;5263599;28;20029;-72
2022/12/13 08:30:06;;;;;;;35.60;24.77;;;;;;;-1.92;87.32;100916.13;5276734;28;20021;-80
2022/12/13 08:32:37;;;;;;;33.03;24.00;;;;;;;-1.94;85.71;100919.06;5284317;28;20111;-79
2022/12/13 08:35:09;;;;;;;38.58;25.13;;;;;;;-2.05;85.71;100919.63;5273317;28;20103;-77
2022/12/13 08:37:40;;;;;;;37.13;24.55;;;;;;;-2.06;85.63;100920.69;5280837;28;20032;-76
2022/12/13 08:40:12;;;;;;;36.85;24.08;;;;;;;-2.21;85.41;100918.97;5282894;28;20012;-78
2022/12/13 08:42:46;;;;;;;35.00;25.17;;;;;;;-2.18;85.79;100912.28;5272822;28;20028;-77
2022/12/13 08:45:17;;;;;;;36.97;23.83;;;;;;;-2.20;85.45;100911.66;5267755;28;20078;-75
2022/12/13 08:47:48;;;;;;;35.33;24.95;;;;;;;-2.26;85.71;100926.88;5270217;28;20033;-73
2022/12/13 08:50:20;;;;;;;35.08;24.63;;;;;;;-2.14;86.10;100919.00;5284054;28;20025;-73
2022/12/13 08:52:51;;;;;;;38.55;24.67;;;;;;;-2.12;85.90;100919.63;5281853;28;20029;-74
2022/12/13 08:55:23;;;;;;;40.00;28.85;;;;;;;-2.06;85.95;100926.13;5269499;28;20047;-73
2022/12/13 08:57:54;;;;;;;36.92;24.23;;;;;;;-1.99;86.62;100940.59;5288831;28;20037;-73
2022/12/13 09:00:25;;;;;;;40.33;25.48;;;;;;;-2.11;85.72;100943.03;5290067;28;20107;-73
2022/12/13 09:02:57;;;;;;;32.00;24.30;;;;;;;-1.93;86.46;100945.19;5290991;28;20441;-75
2022/12/13 09:05:29;;;;;;;33.03;23.88;;;;;;;-1.83;86.13;100929.31;5282821;28;20102;-75
2022/12/13 09:08:02;;;;;;;34.83;23.20;;;;;;;-1.88;85.61;100931.00;5284901;28;20410;-76
2022/12/13 09:10:34;;;;;;;34.05;24.70;;;;;;;-1.79;85.76;100936.03;5279522;28;20029;-75
2022/12/13 09:13:05;;;;;;;33.60;23.00;;;;;;;-1.79;84.74;100937.88;5284480;28;20153;-75
2022/12/13 09:15:38;;;;;;;41.97;25.45;;;;;;;-1.66;85.17;100932.50;5274300;28;20032;-73
2022/12/13 09:18:10;;;;;;;32.72;23.33;;;;;;;-1.67;84.73;100935.41;5262712;28;20100;-74
2022/12/13 09:20:41;;;;;;;32.65;23.48;;;;;;;-1.60;84.73;100933.53;5266203;28;20548;-73
2022/12/13 09:23:12;;;;;;;33.90;23.25;;;;;;;-1.55;84.30;100934.59;5262798;28;20039;-75
2022/12/13 09:25:44;;;;;;;37.40;23.77;;;;;;;-1.54;84.16;100936.25;5262569;28;20040;-74
2022/12/13 09:28:15;;;;;;;32.13;23.05;;;;;;;-1.55;83.78;100934.59;5276772;28;20044;-74
2022/12/13 09:30:46;;;;;;;34.42;24.00;;;;;;;-1.48;83.64;100933.75;5270481;28;20032;-73
2022/12/13 09:33:18;;;;;;;31.58;23.73;;;;;;;-1.50;83.89;100935.88;5304083;28;20032;-73
2022/12/13 09:35:50;;;;;;;36.55;25.13;;;;;;;-1.46;83.60;100932.50;5276990;28;20036;-73
2022/12/13 09:38:22;;;;;;;33.10;22.92;;;;;;;-1.35;84.41;100929.16;5276519;28;20032;-73
2022/12/13 09:40:55;;;;;;;33.00;24.25;;;;;;;-1.41;84.38;100932.72;5270681;28;20024;-72
2022/12/13 09:43:30;;;;;;;33.95;24.55;;;;;;;-1.38;83.97;100935.03;5300777;28;20031;-73
2022/12/13 09:46:10;;;;;;;35.85;24.83;;;;;;;-1.45;83.94;100934.19;5278774;28;20047;-72
2022/12/13 09:48:41;;;;;;;36.05;26.00;;;;;;;-1.39;84.18;100933.34;5282213;28;20583;-74
2022/12/13 09:51:13;;;;;;;41.08;25.25;;;;;;;-1.29;84.03;100940.25;5297675;28;20125;-74
2022/12/13 09:53:49;;;;;;;34.35;24.23;;;;;;;-1.33;84.65;100935.25;5282688;28;20016;-73
2022/12/13 09:56:22;;;;;;;36.25;24.23;;;;;;;-1.20;84.61;100928.09;5283421;28;20097;-73
2022/12/13 09:58:55;;;;;;;37.38;25.48;;;;;;;-1.04;84.21;100930.41;5283142;28;20021;-74
2022/12/13 10:01:26;;;;;;;37.92;25.35;;;;;;;-1.22;83.05;100922.88;5282785;28;20078;-72
2022/12/13 10:04:00;;;;;;;38.20;27.33;;;;;;;-0.96;83.43;100926.63;5282910;28;20020;-74
2022/12/13 10:06:33;;;;;;;36.03;27.02;;;;;;;-0.98;83.09;100926.84;5291880;28;20047;-73
2022/12/13 10:09:12;;;;;;;36.13;24.75;;;;;;;-0.94;82.90;100917.22;5304536;28;20574;-74
2022/12/13 10:11:49;;;;;;;39.97;27.35;;;;;;;-0.92;82.17;100915.13;5304593;28;20031;-73
2022/12/13 10:14:27;;;;;;;36.55;25.35;;;;;;;-0.93;82.44;100915.31;5283521;28;20029;-73
2022/12/13 10:17:04;;;;;;;38.15;27.63;;;;;;;-0.88;82.93;100907.34;5277291;28;20046;-73
2022/12/13 10:19:39;;;;;;;38.38;26.65;;;;;;;-0.85;82.91;100909.63;5276889;28;20392;-76
2022/12/13 10:22:14;;;;;;;37.50;25.60;;;;;;;-0.78;82.40;100901.47;5263242;28;20028;-75
2022/12/13 10:24:58;;;;;;;38.90;26.63;;;;;;;-0.84;82.30;100913.19;5291527;28;20028;-74
2022/12/13 10:27:41;;;;;;;36.40;25.63;;;;;;;-0.76;82.31;100916.53;5273574;28;20053;-74
2022/12/13 10:30:21;;;;;;;34.97;25.08;;;;;;;-0.80;82.55;100895.38;5272483;28;20387;-73
2022/12/13 10:32:58;;;;;;;36.97;25.90;;;;;;;-0.75;82.76;100892.84;5282395;28;20028;-75
2022/12/13 10:35:36;;;;;;;38.97;27.05;;;;;;;-0.63;82.98;100887.59;5270975;28;20106;-73
2022/12/13 10:38:07;;;;;;;37.65;26.55;;;;;;;-0.68;82.12;100886.34;5280761;28;20036;-74
2022/12/13 10:40:44;;;;;;;36.80;24.55;;;;;;;-0.61;81.20;100889.06;5269996;28;20071;-74
2022/12/13 10:43:20;;;;;;;34.67;23.73;;;;;;;-0.57;81.41;100890.28;5279916;28;20424;-73
2022/12/13 10:45:54;;;;;;;38.08;24.58;;;;;;;-0.62;80.93;100889.25;5261883;28;20053;-74
2022/12/13 10:48:34;;;;;;;31.35;23.67;;;;;;;-0.51;80.86;100889.44;5280272;28;20380;-74
2022/12/13 10:51:12;;;;;;;35.22;24.25;;;;;;;-0.50;79.88;100888.38;5282077;28;20021;-74
2022/12/13 10:53:54;;;;;;;33.63;24.73;;;;;;;-0.40;80.11;100877.03;5282079;28;20378;-75
2022/12/13 10:56:35;;;;;;;37.70;25.15;;;;;;;-0.33;79.81;100868.78;5279147;28;20031;-74
2022/12/13 10:59:23;;;;;;;31.23;22.60;;;;;;;-0.29;79.75;100856.41;5281484;28;20055;-74
2022/12/13 11:01:55;;;;;;;35.45;24.02;;;;;;;-0.28;80.22;100861.66;5262816;28;20025;-74
2022/12/13 11:04:33;;;;;;;32.60;23.33;;;;;;;-0.13;80.26;100855.06;5268542;28;20511;-74
2022/12/13 11:07:26;;;;;;;30.63;23.13;;;;;;;-0.16;80.11;100853.63;5281494;28;20036;-76
2022/12/13 11:10:15;;;;;;;37.78;23.48;;;;;;;-0.13;79.35;100850.44;5282074;28;20087;-74
2022/12/13 11:12:50;;;;;;;36.00;21.90;;;;;;;-0.15;78.78;100844.41;5281038;28;20123;-71
2022/12/13 11:15:25;;;;;;;32.05;22.83;;;;;;;-0.14;78.54;100847.94;5282061;28;20055;-73
2022/12/13 11:18:17;;;;;;;35.78;22.77;;;;;;;0.01;79.14;100837.56;5281731;28;20021;-74
2022/12/13 11:20:57;;;;;;;32.35;22.05;;;;;;;0.05;78.85;100832.50;5281976;28;20035;-73
2022/12/13 11:23:45;;;;;;;35.08;23.95;;;;;;;0.04;78.96;100837.13;5280183;28;20054;-74
2022/12/13 11:26:21;;;;;;;37.67;25.27;;;;;;;0.04;79.08;100849.94;5261489;28;20530;-75
2022/12/13 11:29:48;;;;;;;33.15;23.35;;;;;;;0.16;78.20;100837.28;5261986;28;20075;-73
2022/12/13 11:32:48;;;;;;;30.35;22.58;;;;;;;0.16;77.06;100831.81;5266597;28;20025;-73
2022/12/13 11:35:28;;;;;;;32.30;22.55;;;;;;;0.11;76.62;100826.19;5283020;28;20028;-71
2022/12/13 11:38:14;;;;;;;33.28;22.80;;;;;;;0.23;76.96;100832.59;5298707;28;20368;-71
2022/12/13 11:40:53;;;;;;;36.70;25.83;;;;;;;0.19;76.98;100821.28;5273276;28;20029;-71
2022/12/13 11:43:44;;;;;;;31.35;21.00;;;;;;;0.11;77.47;100827.00;5297018;28;20512;-71
2022/12/13 11:46:34;;;;;;;27.17;17.38;;;;;;;0.57;84.66;100833.16;5284020;28;20036;-67
2022/12/13 11:49:31;;;;;;;29.25;20.80;;;;;;;0.27;78.17;100824.81;5282244;28;20490;-72
2022/12/13 11:52:12;;;;;;;;;;;;;;;0.48;78.51;100815.38;5272720;28;20380;-73
2022/12/13 11:54:49;;;;;;;30.55;21.02;;;;;;;0.37;76.27;100812.31;5303825;28;20331;-73
2022/12/13 11:57:32;;;;;;;28.63;20.48;;;;;;;0.21;75.62;100807.44;5285691;28;20030;-73
2022/12/13 12:00:26;;;;;;;30.40;21.20;;;;;;;0.35;76.45;100802.69;5285249;28;20480;-72
2022/12/13 12:03:08;;;;;;;30.77;20.42;;;;;;;0.26;75.22;100795.88;5273425;28;20087;-71
2022/12/13 12:05:45;;;;;;;28.83;21.55;;;;;;;0.27;75.54;100795.63;5277139;28;20079;-72
2022/12/13 12:08:30;;;;;;;28.33;21.02;;;;;;;0.41;75.47;100785.44;5285110;28;20059;-74
2022/12/13 12:11:29;;;;;;;27.40;16.87;;;;;;;0.45;75.35;100788.56;5271609;28;20029;-71
2022/12/13 12:14:15;;;;;;;29.23;20.17;;;;;;;0.48;75.49;100788.91;5277389;28;20670;-71
2022/12/13 12:16:54;;;;;;;;;;;;;;;0.69;75.81;100775.91;5265254;28;20025;-72
2022/12/13 12:19:32;;;;;;;28.17;20.55;;;;;;;0.55;75.06;100775.22;5264538;28;19920;-72
2022/12/13 12:22:41;;;;;;;27.73;18.30;;;;;;;0.60;75.48;100778.13;5263680;28;20090;-73
2022/12/13 12:25:24;;;;;;;27.80;19.20;;;;;;;0.46;75.22;100790.22;5264676;28;20088;-72
2022/12/13 12:28:17;;;;;;;28.00;19.73;;;;;;;0.52;74.76;100787.44;5263227;28;20051;-73
2022/12/13 12:31:02;;;;;;;29.67;19.98;;;;;;;0.77;78.53;100783.84;5286500;28;20028;-74
2022/12/13 12:33:58;;;;;;;26.05;19.05;;;;;;;0.46;74.24;100788.34;5300981;28;20457;-73
2022/12/13 12:36:38;;;;;;;;;;;;;;;0.73;74.94;100777.97;5270245;28;20098;-74
2022/12/13 12:39:32;;;;;;;31.00;19.65;;;;;;;0.64;73.57;100773.88;5285245;28;19923;-73
2022/12/13 12:42:27;;;;;;;26.70;20.58;;;;;;;0.51;74.58;100774.00;5282874;28;20456;-71
2022/12/13 12:45:22;;;;;;;26.48;20.10;;;;;;;0.60;74.83;100780.84;5284902;28;20029;-75
2022/12/13 12:48:11;;;;;;;26.20;19.13;;;;;;;0.58;73.76;100783.78;5285144;28;20036;-74
2022/12/13 12:50:49;;;;;;;26.73;19.67;;;;;;;0.52;74.48;100794.78;5284821;28;20059;-74
2022/12/13 12:53:32;;;;;;;26.27;20.15;;;;;;;0.62;75.44;100793.22;5284028;28;20488;-74
2022/12/13 12:56:30;;;;;;;24.75;18.30;;;;;;;0.65;74.90;100789.19;5269457;28;20408;-75
2022/12/13 12:59:20;;;;;;;28.33;20.05;;;;;;;0.57;73.88;100789.50;5284005;28;20039;-73
2022/12/13 13:01:55;;;;;;;26.85;18.45;;;;;;;0.64;72.93;100776.63;5284354;28;20032;-71
2022/12/13 13:04:34;;;;;;;34.35;23.13;;;;;;;0.58;73.31;100772.03;5281598;28;20056;-71
2022/12/13 13:07:15;;;;;;;27.35;18.75;;;;;;;0.62;74.01;100768.63;5267314;28;20028;-73
2022/12/13 13:09:47;;;;;;;27.80;20.90;;;;;;;0.64;74.20;100769.25;5262670;28;20104;-71
2022/12/13 13:12:19;;;;;;;26.63;19.75;;;;;;;0.53;73.70;100777.34;5266701;28;20031;-72
2022/12/13 13:14:51;;;;;;;27.17;20.05;;;;;;;0.55;73.94;100780.69;5271121;28;20037;-73
2022/12/13 13:17:24;;;;;;;27.17;19.10;;;;;;;0.53;73.96;100780.06;5262327;28;20029;-72
2022/12/13 13:20:22;;;;;;;28.05;18.95;;;;;;;0.67;74.86;100769.88;5265792;28;20044;-71
2022/12/13 13:22:57;;;;;;;23.17;19.65;;;;;;;0.57;74.10;100768.47;5260495;28;20068;-71
2022/12/13 13:25:33;;;;;;;25.33;18.95;;;;;;;0.63;73.89;100766.75;5262272;28;20063;-71
2022/12/13 13:28:14;;;;;;;28.80;18.63;;;;;;;0.61;74.09;100766.13;5263266;28;20033;-71
2022/12/13 13:31:04;;;;;;;24.42;18.70;;;;;;;0.65;74.08;100775.53;5262602;28;20443;-71
2022/12/13 13:33:47;;;;;;;28.00;19.58;;;;;;;0.64;73.69;100762.97;5262451;28;20036;-71
2022/12/13 13:36:37;;;;;;;28.23;18.30;;;;;;;0.69;74.16;100759.53;5263018;28;20032;-71
2022/12/13 13:39:37;;;;;;;26.48;18.23;;;;;;;0.66;74.66;100758.09;5270345;28;20040;-70
2022/12/13 13:42:16;;;;;;;28.10;20.15;;;;;;;0.55;74.44;100758.84;5280298;28;20040;-71
2022/12/13 13:44:48;;;;;;;25.38;18.27;;;;;;;0.67;73.91;100745.31;5282974;28;20024;-71
2022/12/13 13:47:19;;;;;;;24.70;18.52;;;;;;;0.55;73.39;100737.03;5283583;28;20020;-71
2022/12/13 13:50:11;;;;;;;28.85;20.25;;;;;;;0.76;73.64;100733.00;5275362;28;20031;-72
2022/12/13 13:52:43;;;;;;;23.13;18.33;;;;;;;0.67;72.95;100740.69;5265240;28;20062;-71
2022/12/13 13:55:32;;;;;;;23.85;18.58;;;;;;;0.72;73.62;100735.38;5282866;28;20037;-71
2022/12/13 13:58:18;;;;;;;22.67;17.48;;;;;;;0.68;73.88;100730.59;5283829;28;20036;-71
2022/12/13 14:00:58;;;;;;;28.77;18.40;;;;;;;0.68;73.88;100725.94;5282585;28;20032;-73
2022/12/13 14:04:27;;;;;;;23.02;17.48;;;;;;;0.81;73.11;100725.78;5278934;28;20090;-71
2022/12/13 14:07:24;;;;;;;20.60;16.00;;;;;;;0.92;73.16;100710.56;5220969;28;20041;-71
2022/12/13 14:10:37;;;;;;;27.10;17.77;;;;;;;0.84;73.39;100722.63;5216202;28;20042;-73
2022/12/13 14:13:47;;;;;;;32.30;18.90;;;;;;;0.82;73.07;100726.66;5273769;28;20554;-72
2022/12/13 14:16:48;;;;;;;26.00;18.67;;;;;;;0.88;72.94;100724.91;5266311;28;20044;-69
2022/12/13 14:19:51;;;;;;;30.10;20.67;;;;;;;0.80;73.48;100729.59;5262379;28;20494;-74
2022/12/13 14:22:41;;;;;;;36.15;23.30;;;;;;;0.79;72.81;100722.47;5265436;28;20439;-71
2022/12/13 14:25:41;;;;;;;28.35;17.65;;;;;;;0.80;73.73;100715.94;5272734;28;20084;-74
2022/12/13 14:28:42;;;;;;;26.25;19.05;;;;;;;0.92;73.79;100709.72;5266856;28;20036;-72
2022/12/13 14:31:17;;;;;;;21.27;16.33;;;;;;;0.80;73.35;100702.28;5276390;28;20036;-72
2022/12/13 14:33:52;;;;;;;26.98;17.70;;;;;;;0.81;72.70;100703.94;5280849;28;20087;-73
2022/12/13 14:36:34;;;;;;;24.63;18.10;;;;;;;0.93;74.56;100695.84;5268427;28;20426;-71
2022/12/13 14:39:19;;;;;;;24.17;17.27;;;;;;;0.96;74.00;100691.81;5261970;28;20264;-72
2022/12/13 14:41:53;;;;;;;22.23;16.85;;;;;;;1.01;73.24;100691.97;5261195;28;20039;-71
2022/12/13 14:44:33;;;;;;;21.60;15.90;;;;;;;1.07;73.88;100688.28;5261970;28;20064;-71
2022/12/13 14:47:06;;;;;;;22.50;16.45;;;;;;;0.95;73.30;100688.25;5282708;28;20424;-71
2022/12/13 14:49:41;;;;;;;30.63;22.60;;;;;;;0.97;72.99;100693.47;5281511;28;20029;-72
2022/12/13 14:52:23;;;;;;;25.95;17.17;;;;;;;1.01;73.57;100691.97;5282448;28;20082;-72
2022/12/13 14:54:59;;;;;;;29.48;18.27;;;;;;;0.84;72.92;100703.53;5260848;28;20040;-70
2022/12/13 14:57:33;;;;;;;23.48;18.23;;;;;;;0.76;73.64;100692.06;5261584;28;20057;-70
2022/12/13 15:00:28;;;;;;;28.38;21.35;;;;;;;0.80;75.14;100685.09;5261396;28;20025;-71
2022/12/13 15:03:02;;;;;;;24.77;18.02;;;;;;;0.74;74.48;100675.91;5270319;28;20411;-71
2022/12/13 15:05:40;;;;;;;28.67;18.15;;;;;;;0.92;75.01;100685.13;5282275;28;20047;-70
2022/12/13 15:08:15;;;;;;;44.25;32.17;;;;;;;0.84;75.25;100681.69;5281579;28;20059;-70
2022/12/13 15:10:50;;;;;;;30.65;19.85;;;;;;;0.80;75.59;100680.47;5281276;28;20032;-71
2022/12/13 15:13:35;;;;;;;31.63;19.40;;;;;;;0.71;75.12;100675.53;5282356;28;20040;-71
2022/12/13 15:16:09;;;;;;;26.90;17.02;;;;;;;0.61;75.58;100676.06;5267203;28;20029;-70
2022/12/13 15:18:40;;;;;;;26.25;18.33;;;;;;;0.62;75.68;100673.13;5265276;28;20041;-70
2022/12/13 15:21:22;;;;;;;23.08;17.52;;;;;;;0.81;75.95;100667.63;5282392;28;20021;-70
2022/12/13 15:23:55;;;;;;;23.13;16.55;;;;;;;0.75;75.06;100666.66;5281426;28;20028;-71
2022/12/13 15:26:27;;;;;;;24.35;16.92;;;;;;;0.68;75.16;100665.06;5282946;28;20056;-70
2022/12/13 15:29:00;;;;;;;24.25;17.70;;;;;;;0.71;75.23;100649.06;5286391;28;20042;-71
2022/12/13 15:31:35;;;;;;;25.67;17.73;;;;;;;0.91;75.26;100648.81;5285737;28;20067;-71
2022/12/13 15:34:28;;;;;;;20.50;16.50;;;;;;;0.84;74.84;100648.91;5285370;28;20028;-70
2022/12/13 15:37:11;;;;;;;27.77;17.23;;;;;;;0.83;74.28;100655.41;5285062;28;20035;-69
2022/12/13 15:39:45;;;;;;;27.08;18.13;;;;;;;0.77;73.01;100647.34;5286312;28;20020;-71
2022/12/13 15:42:45;;;;;;;26.90;17.60;;;;;;;0.90;73.53;100649.06;5268502;28;20060;-72
2022/12/13 15:45:23;;;;;;;27.10;17.95;;;;;;;0.79;73.17;100637.00;5262461;28;20048;-72
2022/12/13 15:47:54;;;;;;;25.33;16.40;;;;;;;0.71;72.87;100638.13;5266434;28;20048;-71
2022/12/13 15:51:06;;;;;;;29.15;16.75;;;;;;;0.79;73.62;100640.56;5266511;28;20029;-71
2022/12/13 15:53:38;;;;;;;25.48;16.13;;;;;;;0.84;74.25;100643.44;5277488;28;20088;-70
2022/12/13 15:56:34;;;;;;;23.38;17.20;;;;;;;0.91;73.58;100643.34;5287006;28;20024;-71
2022/12/13 15:59:24;;;;;;;25.35;17.73;;;;;;;0.80;73.38;100636.78;5285962;28;20611;-71
2022/12/13 16:01:56;;;;;;;26.42;18.67;;;;;;;0.78;73.53;100638.91;5267364;28;20486;-71
2022/12/13 16:04:34;;;;;;;28.73;17.90;;;;;;;0.69;74.27;100633.97;5265772;28;20083;-70
2022/12/13 16:07:05;;;;;;;26.75;17.02;;;;;;;0.59;73.79;100624.44;5274574;28;20021;-72
2022/12/13 16:09:39;;;;;;;24.58;17.10;;;;;;;0.75;74.23;100628.44;5265347;28;20052;-71
2022/12/13 16:12:22;;;;;;;26.92;18.52;;;;;;;0.75;73.76;100633.91;5264658;28;20028;-71
2022/12/13 16:15:25;;;;;;;24.73;17.95;;;;;;;0.75;74.43;100628.44;5264190;28;20136;-70
2022/12/13 16:18:21;;;;;;;25.58;18.65;;;;;;;0.71;74.85;100637.31;5265670;28;20451;-70
2022/12/13 16:20:53;;;;;;;24.10;18.70;;;;;;;0.70;73.83;100641.94;5264384;28;20029;-70
2022/12/13 16:23:24;;;;;;;25.30;17.77;;;;;;;0.71;73.77;100640.03;5266164;28;20387;-70
2022/12/13 16:25:57;;;;;;;28.10;17.80;;;;;;;0.61;74.34;100632.38;5265787;28;20037;-71
2022/12/13 16:28:29;;;;;;;23.23;16.88;;;;;;;0.62;73.40;100636.81;5281187;28;20027;-71
2022/12/13 16:31:17;;;;;;;28.60;19.73;;;;;;;0.72;73.87;100639.00;5286391;28;20359;-70
2022/12/13 16:33:48;;;;;;;24.85;16.30;;;;;;;0.78;73.02;100636.16;5277780;28;20029;-71
2022/12/13 16:36:19;;;;;;;23.75;15.35;;;;;;;0.65;72.62;100633.59;5281401;28;20067;-71
